sensor_id;sensor_type;location;lat;lon;timestamp;P1;durP1;ratioP1;P2;durP2;ratioP2
9898;SDS011;4988;49.238;6.698;2023-05-17T00:00:42;9.50;;;3.37;;
9898;SDS011;4988;49.238;6.698;2023-05-17T00:03:07;8.23;;;3.27;;
9898;SDS011;4988;49.238;6.698;2023-05-17T00:05:32;10.23;;;3.60;;
9898;SDS011;4988;49.238;6.698;2023-05-17T00:07:58;10.43;;;3.80;;
9898;SDS011;4988;49.238;6.698;2023-05-17T00:10:23;9.80;;;3.73;;
9898;SDS011;4988;49.238;6.698;2023-05-17T00:12:48;11.27;;;4.30;;
9898;SDS011;4988;49.238;6.698;2023-05-17T00:15:14;7.77;;;3.77;;
9898;SDS011;4988;49.238;6.698;2023-05-17T00:17:39;8.30;;;4.00;;
9898;SDS011;4988;49.238;6.698;2023-05-17T00:20:04;10.40;;;3.53;;
9898;SDS011;4988;49.238;6.698;2023-05-17T00:22:30;10.73;;;3.80;;
9898;SDS011;4988;49.238;6.698;2023-05-17T00:24:56;11.73;;;3.87;;
9898;SDS011;4988;49.238;6.698;2023-05-17T00:27:21;11.20;;;3.47;;
9898;SDS011;4988;49.238;6.698;2023-05-17T00:29:47;8.87;;;4.60;;
9898;SDS011;4988;49.238;6.698;2023-05-17T00:32:12;9.80;;;3.90;;
9898;SDS011;4988;49.238;6.698;2023-05-17T00:34:37;8.50;;;4.03;;
9898;SDS011;4988;49.238;6.698;2023-05-17T00:37:03;7.83;;;3.57;;
9898;SDS011;4988;49.238;6.698;2023-05-17T00:39:28;9.47;;;3.67;;
9898;SDS011;4988;49.238;6.698;2023-05-17T00:41:53;10.13;;;3.80;;
9898;SDS011;4988;49.238;6.698;2023-05-17T00:44:19;7.40;;;3.57;;
9898;SDS011;4988;49.238;6.698;2023-05-17T00:46:44;9.53;;;4.07;;
9898;SDS011;4988;49.238;6.698;2023-05-17T00:49:10;11.70;;;3.87;;
9898;SDS011;4988;49.238;6.698;2023-05-17T00:51:36;8.47;;;3.73;;
9898;SDS011;4988;49.238;6.698;2023-05-17T00:54:02;8.50;;;3.60;;
9898;SDS011;4988;49.238;6.698;2023-05-17T00:56:28;9.50;;;4.30;;
9898;SDS011;4988;49.238;6.698;2023-05-17T00:58:55;11.40;;;4.27;;
9898;SDS011;4988;49.238;6.698;2023-05-17T01:01:20;11.67;;;4.50;;
9898;SDS011;4988;49.238;6.698;2023-05-17T01:03:46;10.83;;;4.60;;
9898;SDS011;4988;49.238;6.698;2023-05-17T01:06:12;11.90;;;4.90;;
9898;SDS011;4988;49.238;6.698;2023-05-17T01:08:37;11.30;;;4.33;;
9898;SDS011;4988;49.238;6.698;2023-05-17T01:16:50;9.83;;;4.13;;
9898;SDS011;4988;49.238;6.698;2023-05-17T01:22:04;14.40;;;4.87;;
9898;SDS011;4988;49.238;6.698;2023-05-17T01:24:58;9.80;;;4.73;;
9898;SDS011;4988;49.238;6.698;2023-05-17T01:27:30;9.53;;;4.53;;
9898;SDS011;4988;49.238;6.698;2023-05-17T01:29:56;11.00;;;4.90;;
9898;SDS011;4988;49.238;6.698;2023-05-17T01:32:25;8.77;;;4.70;;
9898;SDS011;4988;49.238;6.698;2023-05-17T01:34:52;13.90;;;4.80;;
9898;SDS011;4988;49.238;6.698;2023-05-17T01:37:17;11.13;;;5.00;;
9898;SDS011;4988;49.238;6.698;2023-05-17T01:39:43;10.50;;;4.53;;
9898;SDS011;4988;49.238;6.698;2023-05-17T01:42:20;11.37;;;4.73;;
9898;SDS011;4988;49.238;6.698;2023-05-17T01:47:28;9.40;;;4.10;;
9898;SDS011;4988;49.238;6.698;2023-05-17T01:50:04;9.97;;;3.87;;
9898;SDS011;4988;49.238;6.698;2023-05-17T01:52:37;10.30;;;4.20;;
9898;SDS011;4988;49.238;6.698;2023-05-17T01:58:11;11.20;;;4.13;;
9898;SDS011;4988;49.238;6.698;2023-05-17T02:00:37;9.93;;;4.53;;
9898;SDS011;4988;49.238;6.698;2023-05-17T02:03:05;13.00;;;4.20;;
9898;SDS011;4988;49.238;6.698;2023-05-17T02:05:30;9.23;;;4.10;;
9898;SDS011;4988;49.238;6.698;2023-05-17T02:07:56;7.43;;;4.80;;
9898;SDS011;4988;49.238;6.698;2023-05-17T02:10:21;7.20;;;4.43;;
9898;SDS011;4988;49.238;6.698;2023-05-17T02:12:46;7.83;;;4.40;;
9898;SDS011;4988;49.238;6.698;2023-05-17T02:15:12;7.80;;;4.30;;
9898;SDS011;4988;49.238;6.698;2023-05-17T02:17:37;11.27;;;4.30;;
9898;SDS011;4988;49.238;6.698;2023-05-17T02:20:05;7.70;;;4.00;;
9898;SDS011;4988;49.238;6.698;2023-05-17T02:22:31;10.27;;;4.73;;
9898;SDS011;4988;49.238;6.698;2023-05-17T02:24:56;8.33;;;4.40;;
9898;SDS011;4988;49.238;6.698;2023-05-17T02:27:22;9.30;;;4.10;;
9898;SDS011;4988;49.238;6.698;2023-05-17T02:29:47;8.90;;;4.70;;
9898;SDS011;4988;49.238;6.698;2023-05-17T02:32:13;8.57;;;4.47;;
9898;SDS011;4988;49.238;6.698;2023-05-17T02:34:38;8.60;;;3.67;;
9898;SDS011;4988;49.238;6.698;2023-05-17T02:37:03;6.70;;;4.13;;
9898;SDS011;4988;49.238;6.698;2023-05-17T02:39:30;10.17;;;3.80;;
9898;SDS011;4988;49.238;6.698;2023-05-17T02:41:56;9.87;;;4.30;;
9898;SDS011;4988;49.238;6.698;2023-05-17T02:44:22;7.13;;;3.83;;
9898;SDS011;4988;49.238;6.698;2023-05-17T02:46:47;7.53;;;4.03;;
9898;SDS011;4988;49.238;6.698;2023-05-17T02:49:12;9.67;;;4.10;;
9898;SDS011;4988;49.238;6.698;2023-05-17T02:51:37;9.27;;;4.47;;
9898;SDS011;4988;49.238;6.698;2023-05-17T02:54:03;8.13;;;4.40;;
9898;SDS011;4988;49.238;6.698;2023-05-17T02:56:28;10.63;;;4.63;;
9898;SDS011;4988;49.238;6.698;2023-05-17T02:58:53;8.80;;;4.70;;
9898;SDS011;4988;49.238;6.698;2023-05-17T03:01:21;9.90;;;4.13;;
9898;SDS011;4988;49.238;6.698;2023-05-17T03:03:47;11.63;;;4.03;;
9898;SDS011;4988;49.238;6.698;2023-05-17T03:06:12;7.30;;;4.07;;
9898;SDS011;4988;49.238;6.698;2023-05-17T03:08:38;12.53;;;4.93;;
9898;SDS011;4988;49.238;6.698;2023-05-17T03:11:04;11.20;;;3.57;;
9898;SDS011;4988;49.238;6.698;2023-05-17T03:13:29;6.17;;;4.10;;
9898;SDS011;4988;49.238;6.698;2023-05-17T03:15:55;6.27;;;3.87;;
9898;SDS011;4988;49.238;6.698;2023-05-17T03:18:20;10.67;;;4.20;;
9898;SDS011;4988;49.238;6.698;2023-05-17T03:20:46;6.33;;;4.00;;
9898;SDS011;4988;49.238;6.698;2023-05-17T03:23:11;8.10;;;4.17;;
9898;SDS011;4988;49.238;6.698;2023-05-17T03:25:36;9.07;;;3.90;;
9898;SDS011;4988;49.238;6.698;2023-05-17T03:28:01;6.57;;;3.77;;
9898;SDS011;4988;49.238;6.698;2023-05-17T03:30:27;6.87;;;3.60;;
9898;SDS011;4988;49.238;6.698;2023-05-17T03:32:52;8.20;;;4.10;;
9898;SDS011;4988;49.238;6.698;2023-05-17T03:35:18;9.80;;;3.80;;
9898;SDS011;4988;49.238;6.698;2023-05-17T03:37:43;9.03;;;4.40;;
9898;SDS011;4988;49.238;6.698;2023-05-17T03:40:09;8.53;;;3.60;;
9898;SDS011;4988;49.238;6.698;2023-05-17T03:42:35;6.27;;;3.97;;
9898;SDS011;4988;49.238;6.698;2023-05-17T03:45:00;7.77;;;3.93;;
9898;SDS011;4988;49.238;6.698;2023-05-17T03:47:26;8.43;;;3.70;;
9898;SDS011;4988;49.238;6.698;2023-05-17T03:49:51;7.20;;;3.80;;
9898;SDS011;4988;49.238;6.698;2023-05-17T03:52:17;6.33;;;3.70;;
9898;SDS011;4988;49.238;6.698;2023-05-17T03:54:42;8.07;;;3.90;;
9898;SDS011;4988;49.238;6.698;2023-05-17T03:57:07;8.13;;;4.10;;
9898;SDS011;4988;49.238;6.698;2023-05-17T03:59:33;12.90;;;3.90;;
9898;SDS011;4988;49.238;6.698;2023-05-17T04:01:58;11.40;;;4.53;;
9898;SDS011;4988;49.238;6.698;2023-05-17T04:04:23;9.43;;;3.70;;
9898;SDS011;4988;49.238;6.698;2023-05-17T04:06:49;6.97;;;3.63;;
9898;SDS011;4988;49.238;6.698;2023-05-17T04:09:14;9.83;;;4.53;;
9898;SDS011;4988;49.238;6.698;2023-05-17T04:11:42;7.53;;;3.83;;
9898;SDS011;4988;49.238;6.698;2023-05-17T04:14:08;7.40;;;4.33;;
9898;SDS011;4988;49.238;6.698;2023-05-17T04:16:33;9.07;;;4.40;;
9898;SDS011;4988;49.238;6.698;2023-05-17T04:18:59;10.33;;;4.43;;
9898;SDS011;4988;49.238;6.698;2023-05-17T04:21:25;5.07;;;3.67;;
9898;SDS011;4988;49.238;6.698;2023-05-17T04:23:50;8.73;;;4.30;;
9898;SDS011;4988;49.238;6.698;2023-05-17T04:26:16;11.30;;;4.53;;
9898;SDS011;4988;49.238;6.698;2023-05-17T04:28:42;12.70;;;4.37;;
9898;SDS011;4988;49.238;6.698;2023-05-17T04:31:07;13.00;;;4.33;;
9898;SDS011;4988;49.238;6.698;2023-05-17T04:33:33;5.73;;;3.90;;
9898;SDS011;4988;49.238;6.698;2023-05-17T04:35:58;12.20;;;4.43;;
9898;SDS011;4988;49.238;6.698;2023-05-17T04:38:23;8.73;;;4.30;;
9898;SDS011;4988;49.238;6.698;2023-05-17T04:40:49;12.17;;;4.43;;
9898;SDS011;4988;49.238;6.698;2023-05-17T04:43:15;6.67;;;3.73;;
9898;SDS011;4988;49.238;6.698;2023-05-17T04:45:40;7.43;;;4.17;;
9898;SDS011;4988;49.238;6.698;2023-05-17T04:48:06;9.03;;;3.97;;
9898;SDS011;4988;49.238;6.698;2023-05-17T04:50:31;7.50;;;4.10;;
9898;SDS011;4988;49.238;6.698;2023-05-17T04:52:56;7.37;;;4.23;;
9898;SDS011;4988;49.238;6.698;2023-05-17T04:55:22;8.70;;;4.93;;
9898;SDS011;4988;49.238;6.698;2023-05-17T04:57:47;8.80;;;4.70;;
9898;SDS011;4988;49.238;6.698;2023-05-17T05:00:13;10.17;;;4.90;;
9898;SDS011;4988;49.238;6.698;2023-05-17T05:02:39;10.03;;;4.00;;
9898;SDS011;4988;49.238;6.698;2023-05-17T05:05:05;7.70;;;4.53;;
9898;SDS011;4988;49.238;6.698;2023-05-17T05:07:31;11.17;;;4.37;;
9898;SDS011;4988;49.238;6.698;2023-05-17T05:09:56;10.07;;;4.40;;
9898;SDS011;4988;49.238;6.698;2023-05-17T05:12:22;10.20;;;4.73;;
9898;SDS011;4988;49.238;6.698;2023-05-17T05:14:48;9.37;;;4.60;;
9898;SDS011;4988;49.238;6.698;2023-05-17T05:17:13;9.97;;;4.27;;
9898;SDS011;4988;49.238;6.698;2023-05-17T05:19:39;9.63;;;5.07;;
9898;SDS011;4988;49.238;6.698;2023-05-17T05:22:04;8.60;;;4.67;;
9898;SDS011;4988;49.238;6.698;2023-05-17T05:24:29;13.93;;;4.57;;
9898;SDS011;4988;49.238;6.698;2023-05-17T05:26:55;13.00;;;4.90;;
9898;SDS011;4988;49.238;6.698;2023-05-17T05:29:20;10.37;;;5.57;;
9898;SDS011;4988;49.238;6.698;2023-05-17T05:31:45;11.87;;;4.97;;
9898;SDS011;4988;49.238;6.698;2023-05-17T05:34:11;7.90;;;4.93;;
9898;SDS011;4988;49.238;6.698;2023-05-17T05:36:36;7.73;;;4.83;;
9898;SDS011;4988;49.238;6.698;2023-05-17T05:39:01;9.53;;;5.20;;
9898;SDS011;4988;49.238;6.698;2023-05-17T05:41:27;12.00;;;5.53;;
9898;SDS011;4988;49.238;6.698;2023-05-17T05:43:54;13.80;;;5.20;;
9898;SDS011;4988;49.238;6.698;2023-05-17T05:46:19;8.37;;;5.10;;
9898;SDS011;4988;49.238;6.698;2023-05-17T05:48:44;13.67;;;4.93;;
9898;SDS011;4988;49.238;6.698;2023-05-17T05:51:10;9.63;;;5.00;;
9898;SDS011;4988;49.238;6.698;2023-05-17T05:53:35;11.07;;;4.97;;
9898;SDS011;4988;49.238;6.698;2023-05-17T05:56:02;10.03;;;5.50;;
9898;SDS011;4988;49.238;6.698;2023-05-17T05:58:28;13.37;;;5.30;;
9898;SDS011;4988;49.238;6.698;2023-05-17T06:00:53;9.63;;;4.83;;
9898;SDS011;4988;49.238;6.698;2023-05-17T06:03:19;14.27;;;5.07;;
9898;SDS011;4988;49.238;6.698;2023-05-17T06:05:44;11.53;;;5.13;;
9898;SDS011;4988;49.238;6.698;2023-05-17T06:08:10;10.10;;;5.37;;
9898;SDS011;4988;49.238;6.698;2023-05-17T06:10:35;10.17;;;5.37;;
9898;SDS011;4988;49.238;6.698;2023-05-17T06:13:00;9.90;;;5.33;;
9898;SDS011;4988;49.238;6.698;2023-05-17T06:15:26;16.47;;;5.53;;
9898;SDS011;4988;49.238;6.698;2023-05-17T06:17:52;16.83;;;5.87;;
9898;SDS011;4988;49.238;6.698;2023-05-17T06:20:17;12.33;;;5.93;;
9898;SDS011;4988;49.238;6.698;2023-05-17T06:22:42;11.63;;;5.17;;
9898;SDS011;4988;49.238;6.698;2023-05-17T06:25:08;11.37;;;5.10;;
9898;SDS011;4988;49.238;6.698;2023-05-17T06:27:35;18.00;;;5.33;;
9898;SDS011;4988;49.238;6.698;2023-05-17T06:30:00;9.03;;;5.07;;
9898;SDS011;4988;49.238;6.698;2023-05-17T06:32:26;14.10;;;6.17;;
9898;SDS011;4988;49.238;6.698;2023-05-17T06:34:51;11.40;;;5.40;;
9898;SDS011;4988;49.238;6.698;2023-05-17T06:37:17;15.83;;;6.00;;
9898;SDS011;4988;49.238;6.698;2023-05-17T06:39:42;8.47;;;5.50;;
9898;SDS011;4988;49.238;6.698;2023-05-17T06:42:07;13.83;;;5.60;;
9898;SDS011;4988;49.238;6.698;2023-05-17T06:44:33;10.73;;;6.33;;
9898;SDS011;4988;49.238;6.698;2023-05-17T06:46:58;12.60;;;5.63;;
9898;SDS011;4988;49.238;6.698;2023-05-17T06:49:24;9.50;;;5.33;;
9898;SDS011;4988;49.238;6.698;2023-05-17T06:51:50;17.80;;;5.70;;
9898;SDS011;4988;49.238;6.698;2023-05-17T06:54:18;13.90;;;5.77;;
9898;SDS011;4988;49.238;6.698;2023-05-17T06:56:43;9.43;;;5.40;;
9898;SDS011;4988;49.238;6.698;2023-05-17T06:59:09;10.60;;;5.20;;
9898;SDS011;4988;49.238;6.698;2023-05-17T07:01:34;8.80;;;4.87;;
9898;SDS011;4988;49.238;6.698;2023-05-17T07:04:00;10.57;;;4.90;;
9898;SDS011;4988;49.238;6.698;2023-05-17T07:06:25;10.90;;;5.20;;
9898;SDS011;4988;49.238;6.698;2023-05-17T07:08:51;15.77;;;4.97;;
9898;SDS011;4988;49.238;6.698;2023-05-17T07:11:16;14.80;;;4.83;;
9898;SDS011;4988;49.238;6.698;2023-05-17T07:13:41;11.03;;;5.13;;
9898;SDS011;4988;49.238;6.698;2023-05-17T07:16:07;10.60;;;4.23;;
9898;SDS011;4988;49.238;6.698;2023-05-17T07:18:33;11.90;;;5.13;;
9898;SDS011;4988;49.238;6.698;2023-05-17T07:20:58;17.83;;;5.40;;
9898;SDS011;4988;49.238;6.698;2023-05-17T07:23:23;17.23;;;5.80;;
9898;SDS011;4988;49.238;6.698;2023-05-17T07:25:49;15.10;;;5.87;;
9898;SDS011;4988;49.238;6.698;2023-05-17T07:28:15;12.67;;;5.47;;
9898;SDS011;4988;49.238;6.698;2023-05-17T07:30:40;11.93;;;5.40;;
9898;SDS011;4988;49.238;6.698;2023-05-17T07:33:05;14.63;;;5.90;;
9898;SDS011;4988;49.238;6.698;2023-05-17T07:35:31;13.67;;;5.97;;
9898;SDS011;4988;49.238;6.698;2023-05-17T07:37:56;10.40;;;5.40;;
9898;SDS011;4988;49.238;6.698;2023-05-17T07:40:21;11.37;;;6.07;;
9898;SDS011;4988;49.238;6.698;2023-05-17T07:42:47;11.33;;;6.00;;
9898;SDS011;4988;49.238;6.698;2023-05-17T07:45:12;15.33;;;6.40;;
9898;SDS011;4988;49.238;6.698;2023-05-17T07:47:37;12.23;;;6.73;;
9898;SDS011;4988;49.238;6.698;2023-05-17T07:50:03;15.33;;;6.63;;
9898;SDS011;4988;49.238;6.698;2023-05-17T07:52:28;12.83;;;7.27;;
9898;SDS011;4988;49.238;6.698;2023-05-17T07:54:54;12.23;;;7.17;;
9898;SDS011;4988;49.238;6.698;2023-05-17T07:57:19;13.27;;;7.13;;
9898;SDS011;4988;49.238;6.698;2023-05-17T07:59:44;13.60;;;8.03;;
9898;SDS011;4988;49.238;6.698;2023-05-17T08:02:10;17.37;;;8.07;;
9898;SDS011;4988;49.238;6.698;2023-05-17T08:04:35;12.90;;;6.90;;
9898;SDS011;4988;49.238;6.698;2023-05-17T08:07:01;17.70;;;8.20;;
9898;SDS011;4988;49.238;6.698;2023-05-17T08:09:26;13.63;;;6.87;;
9898;SDS011;4988;49.238;6.698;2023-05-17T08:11:52;13.43;;;7.03;;
9898;SDS011;4988;49.238;6.698;2023-05-17T08:14:17;12.97;;;7.27;;
9898;SDS011;4988;49.238;6.698;2023-05-17T08:16:44;16.07;;;7.47;;
9898;SDS011;4988;49.238;6.698;2023-05-17T08:19:10;17.47;;;7.70;;
9898;SDS011;4988;49.238;6.698;2023-05-17T08:21:37;15.33;;;7.93;;
9898;SDS011;4988;49.238;6.698;2023-05-17T08:24:03;20.27;;;9.10;;
9898;SDS011;4988;49.238;6.698;2023-05-17T08:26:29;19.30;;;8.17;;
9898;SDS011;4988;49.238;6.698;2023-05-17T08:28:54;16.73;;;8.03;;
9898;SDS011;4988;49.238;6.698;2023-05-17T08:31:19;15.20;;;7.27;;
9898;SDS011;4988;49.238;6.698;2023-05-17T08:33:44;17.63;;;9.07;;
9898;SDS011;4988;49.238;6.698;2023-05-17T08:36:10;15.07;;;8.03;;
9898;SDS011;4988;49.238;6.698;2023-05-17T08:38:35;15.60;;;8.10;;
9898;SDS011;4988;49.238;6.698;2023-05-17T08:41:01;19.90;;;8.97;;
9898;SDS011;4988;49.238;6.698;2023-05-17T08:43:27;14.47;;;7.10;;
9898;SDS011;4988;49.238;6.698;2023-05-17T08:45:52;18.53;;;8.17;;
9898;SDS011;4988;49.238;6.698;2023-05-17T08:48:18;11.57;;;6.83;;
9898;SDS011;4988;49.238;6.698;2023-05-17T08:50:45;15.43;;;7.10;;
9898;SDS011;4988;49.238;6.698;2023-05-17T08:53:11;15.57;;;6.80;;
9898;SDS011;4988;49.238;6.698;2023-05-17T08:55:39;9.60;;;5.80;;
9898;SDS011;4988;49.238;6.698;2023-05-17T08:58:07;14.10;;;6.67;;
9898;SDS011;4988;49.238;6.698;2023-05-17T09:00:34;14.73;;;6.63;;
9898;SDS011;4988;49.238;6.698;2023-05-17T09:03:00;14.20;;;6.13;;
9898;SDS011;4988;49.238;6.698;2023-05-17T09:05:26;10.63;;;5.70;;
9898;SDS011;4988;49.238;6.698;2023-05-17T09:07:52;12.83;;;5.50;;
9898;SDS011;4988;49.238;6.698;2023-05-17T09:10:18;11.60;;;6.10;;
9898;SDS011;4988;49.238;6.698;2023-05-17T09:12:43;14.73;;;5.97;;
9898;SDS011;4988;49.238;6.698;2023-05-17T09:15:13;11.93;;;5.73;;
9898;SDS011;4988;49.238;6.698;2023-05-17T09:17:40;14.83;;;6.40;;
9898;SDS011;4988;49.238;6.698;2023-05-17T09:20:07;13.73;;;6.10;;
9898;SDS011;4988;49.238;6.698;2023-05-17T09:22:33;14.03;;;6.20;;
9898;SDS011;4988;49.238;6.698;2023-05-17T09:25:00;12.97;;;5.93;;
9898;SDS011;4988;49.238;6.698;2023-05-17T09:27:29;15.90;;;6.43;;
9898;SDS011;4988;49.238;6.698;2023-05-17T09:29:55;13.97;;;5.40;;
9898;SDS011;4988;49.238;6.698;2023-05-17T09:32:20;15.07;;;6.23;;
9898;SDS011;4988;49.238;6.698;2023-05-17T09:34:46;11.20;;;5.60;;
9898;SDS011;4988;49.238;6.698;2023-05-17T09:37:13;14.90;;;6.63;;
9898;SDS011;4988;49.238;6.698;2023-05-17T09:39:40;12.70;;;6.63;;
9898;SDS011;4988;49.238;6.698;2023-05-17T09:42:06;15.83;;;6.43;;
9898;SDS011;4988;49.238;6.698;2023-05-17T09:44:31;15.23;;;6.00;;
9898;SDS011;4988;49.238;6.698;2023-05-17T09:47:26;14.37;;;6.30;;
9898;SDS011;4988;49.238;6.698;2023-05-17T09:49:53;12.10;;;6.17;;
9898;SDS011;4988;49.238;6.698;2023-05-17T09:52:20;14.73;;;5.77;;
9898;SDS011;4988;49.238;6.698;2023-05-17T09:54:54;9.37;;;5.20;;
9898;SDS011;4988;49.238;6.698;2023-05-17T09:57:21;9.70;;;5.13;;
9898;SDS011;4988;49.238;6.698;2023-05-17T09:59:46;11.33;;;5.43;;
9898;SDS011;4988;49.238;6.698;2023-05-17T10:02:20;10.83;;;4.93;;
9898;SDS011;4988;49.238;6.698;2023-05-17T10:04:50;10.57;;;5.63;;
9898;SDS011;4988;49.238;6.698;2023-05-17T10:07:18;10.90;;;4.87;;
9898;SDS011;4988;49.238;6.698;2023-05-17T10:09:44;8.77;;;4.97;;
9898;SDS011;4988;49.238;6.698;2023-05-17T10:12:12;14.13;;;5.17;;
9898;SDS011;4988;49.238;6.698;2023-05-17T10:14:40;12.47;;;4.90;;
9898;SDS011;4988;49.238;6.698;2023-05-17T10:17:07;11.90;;;4.93;;
9898;SDS011;4988;49.238;6.698;2023-05-17T10:19:34;11.17;;;5.00;;
9898;SDS011;4988;49.238;6.698;2023-05-17T10:22:00;12.70;;;5.13;;
9898;SDS011;4988;49.238;6.698;2023-05-17T10:24:26;15.67;;;5.43;;
9898;SDS011;4988;49.238;6.698;2023-05-17T10:26:54;11.37;;;5.30;;
9898;SDS011;4988;49.238;6.698;2023-05-17T10:29:21;12.60;;;5.00;;
9898;SDS011;4988;49.238;6.698;2023-05-17T10:31:47;13.07;;;5.50;;
9898;SDS011;4988;49.238;6.698;2023-05-17T10:34:15;12.67;;;4.77;;
9898;SDS011;4988;49.238;6.698;2023-05-17T10:36:45;13.23;;;6.07;;
9898;SDS011;4988;49.238;6.698;2023-05-17T10:39:12;9.47;;;4.90;;
9898;SDS011;4988;49.238;6.698;2023-05-17T10:41:39;13.30;;;5.27;;
9898;SDS011;4988;49.238;6.698;2023-05-17T10:44:07;8.00;;;4.57;;
9898;SDS011;4988;49.238;6.698;2023-05-17T10:46:36;9.30;;;5.00;;
9898;SDS011;4988;49.238;6.698;2023-05-17T10:49:03;12.53;;;4.97;;
9898;SDS011;4988;49.238;6.698;2023-05-17T10:51:32;10.00;;;5.00;;
9898;SDS011;4988;49.238;6.698;2023-05-17T10:56:26;11.57;;;5.17;;
9898;SDS011;4988;49.238;6.698;2023-05-17T11:02:02;10.03;;;5.07;;
9898;SDS011;4988;49.238;6.698;2023-05-17T11:04:32;8.73;;;5.30;;
9898;SDS011;4988;49.238;6.698;2023-05-17T11:09:45;9.83;;;5.20;;
9898;SDS011;4988;49.238;6.698;2023-05-17T11:12:13;10.73;;;4.83;;
9898;SDS011;4988;49.238;6.698;2023-05-17T11:17:13;10.87;;;4.83;;
9898;SDS011;4988;49.238;6.698;2023-05-17T11:22:25;12.53;;;5.23;;
9898;SDS011;4988;49.238;6.698;2023-05-17T11:24:52;12.80;;;5.33;;
9898;SDS011;4988;49.238;6.698;2023-05-17T11:27:20;9.33;;;4.70;;
9898;SDS011;4988;49.238;6.698;2023-05-17T11:29:51;14.87;;;5.70;;
9898;SDS011;4988;49.238;6.698;2023-05-17T11:32:29;15.20;;;5.10;;
9898;SDS011;4988;49.238;6.698;2023-05-17T11:34:58;9.77;;;4.53;;
9898;SDS011;4988;49.238;6.698;2023-05-17T11:37:28;9.63;;;5.00;;
9898;SDS011;4988;49.238;6.698;2023-05-17T11:40:04;8.63;;;4.60;;
9898;SDS011;4988;49.238;6.698;2023-05-17T11:42:32;15.57;;;5.47;;
9898;SDS011;4988;49.238;6.698;2023-05-17T11:45:01;11.27;;;5.10;;
9898;SDS011;4988;49.238;6.698;2023-05-17T11:47:27;9.33;;;4.77;;
9898;SDS011;4988;49.238;6.698;2023-05-17T11:49:53;10.73;;;4.97;;
9898;SDS011;4988;49.238;6.698;2023-05-17T11:52:19;10.67;;;5.03;;
9898;SDS011;4988;49.238;6.698;2023-05-17T11:54:45;11.13;;;5.27;;
9898;SDS011;4988;49.238;6.698;2023-05-17T11:57:12;11.53;;;4.80;;
9898;SDS011;4988;49.238;6.698;2023-05-17T11:59:40;8.77;;;4.93;;
9898;SDS011;4988;49.238;6.698;2023-05-17T12:02:07;10.40;;;4.50;;
9898;SDS011;4988;49.238;6.698;2023-05-17T12:04:34;12.10;;;4.90;;
9898;SDS011;4988;49.238;6.698;2023-05-17T12:07:01;9.33;;;4.33;;
9898;SDS011;4988;49.238;6.698;2023-05-17T12:09:27;12.27;;;4.90;;
9898;SDS011;4988;49.238;6.698;2023-05-17T12:11:53;6.83;;;4.00;;
9898;SDS011;4988;49.238;6.698;2023-05-17T12:14:19;7.80;;;4.30;;
9898;SDS011;4988;49.238;6.698;2023-05-17T12:16:52;11.13;;;4.67;;
9898;SDS011;4988;49.238;6.698;2023-05-17T12:19:20;9.60;;;4.50;;
9898;SDS011;4988;49.238;6.698;2023-05-17T12:21:47;7.87;;;4.30;;
9898;SDS011;4988;49.238;6.698;2023-05-17T12:24:14;11.73;;;5.43;;
9898;SDS011;4988;49.238;6.698;2023-05-17T12:26:46;9.73;;;4.53;;
9898;SDS011;4988;49.238;6.698;2023-05-17T12:29:12;13.57;;;4.40;;
9898;SDS011;4988;49.238;6.698;2023-05-17T12:31:40;16.33;;;4.53;;
9898;SDS011;4988;49.238;6.698;2023-05-17T12:34:07;10.57;;;4.33;;
9898;SDS011;4988;49.238;6.698;2023-05-17T12:36:34;10.20;;;4.57;;
9898;SDS011;4988;49.238;6.698;2023-05-17T12:39:01;10.87;;;4.50;;
9898;SDS011;4988;49.238;6.698;2023-05-17T12:41:27;8.77;;;4.33;;
9898;SDS011;4988;49.238;6.698;2023-05-17T12:43:55;10.10;;;5.07;;
9898;SDS011;4988;49.238;6.698;2023-05-17T12:46:21;8.63;;;4.37;;
9898;SDS011;4988;49.238;6.698;2023-05-17T12:48:48;8.77;;;4.50;;
9898;SDS011;4988;49.238;6.698;2023-05-17T12:51:16;10.00;;;5.00;;
9898;SDS011;4988;49.238;6.698;2023-05-17T12:53:50;8.40;;;4.77;;
9898;SDS011;4988;49.238;6.698;2023-05-17T12:56:25;12.53;;;5.37;;
9898;SDS011;4988;49.238;6.698;2023-05-17T12:59:05;15.57;;;5.03;;
9898;SDS011;4988;49.238;6.698;2023-05-17T13:01:43;11.70;;;4.90;;
9898;SDS011;4988;49.238;6.698;2023-05-17T13:04:10;10.03;;;5.00;;
9898;SDS011;4988;49.238;6.698;2023-05-17T13:06:47;10.13;;;4.37;;
9898;SDS011;4988;49.238;6.698;2023-05-17T13:09:17;11.17;;;4.90;;
9898;SDS011;4988;49.238;6.698;2023-05-17T13:17:18;9.83;;;4.50;;
9898;SDS011;4988;49.238;6.698;2023-05-17T13:19:49;10.30;;;4.87;;
9898;SDS011;4988;49.238;6.698;2023-05-17T13:22:14;8.70;;;4.43;;
9898;SDS011;4988;49.238;6.698;2023-05-17T13:24:40;7.40;;;3.90;;
9898;SDS011;4988;49.238;6.698;2023-05-17T13:27:07;8.17;;;4.10;;
9898;SDS011;4988;49.238;6.698;2023-05-17T13:29:34;12.90;;;4.00;;
9898;SDS011;4988;49.238;6.698;2023-05-17T13:32:01;6.70;;;3.37;;
9898;SDS011;4988;49.238;6.698;2023-05-17T13:34:26;7.10;;;3.50;;
9898;SDS011;4988;49.238;6.698;2023-05-17T13:36:52;8.00;;;4.10;;
9898;SDS011;4988;49.238;6.698;2023-05-17T13:39:17;10.60;;;4.00;;
9898;SDS011;4988;49.238;6.698;2023-05-17T13:41:42;8.77;;;3.67;;
9898;SDS011;4988;49.238;6.698;2023-05-17T13:44:08;8.67;;;3.67;;
9898;SDS011;4988;49.238;6.698;2023-05-17T13:46:34;6.50;;;3.47;;
9898;SDS011;4988;49.238;6.698;2023-05-17T13:49:00;7.93;;;3.93;;
9898;SDS011;4988;49.238;6.698;2023-05-17T13:51:28;7.17;;;4.03;;
9898;SDS011;4988;49.238;6.698;2023-05-17T13:53:53;8.33;;;4.17;;
9898;SDS011;4988;49.238;6.698;2023-05-17T13:56:18;11.33;;;4.00;;
9898;SDS011;4988;49.238;6.698;2023-05-17T13:58:44;11.10;;;4.10;;
9898;SDS011;4988;49.238;6.698;2023-05-17T14:01:09;7.80;;;3.37;;
9898;SDS011;4988;49.238;6.698;2023-05-17T14:03:35;8.90;;;4.20;;
9898;SDS011;4988;49.238;6.698;2023-05-17T14:06:02;9.77;;;4.10;;
9898;SDS011;4988;49.238;6.698;2023-05-17T14:08:27;10.63;;;3.90;;
9898;SDS011;4988;49.238;6.698;2023-05-17T14:10:53;10.87;;;4.00;;
9898;SDS011;4988;49.238;6.698;2023-05-17T14:13:18;8.13;;;3.80;;
9898;SDS011;4988;49.238;6.698;2023-05-17T14:15:43;7.90;;;3.50;;
9898;SDS011;4988;49.238;6.698;2023-05-17T14:18:09;8.70;;;4.27;;
9898;SDS011;4988;49.238;6.698;2023-05-17T14:20:34;10.37;;;4.00;;
9898;SDS011;4988;49.238;6.698;2023-05-17T14:23:00;12.10;;;4.37;;
9898;SDS011;4988;49.238;6.698;2023-05-17T14:25:25;10.07;;;4.00;;
9898;SDS011;4988;49.238;6.698;2023-05-17T14:27:51;8.50;;;3.93;;
9898;SDS011;4988;49.238;6.698;2023-05-17T14:30:17;7.20;;;3.47;;
9898;SDS011;4988;49.238;6.698;2023-05-17T14:32:43;8.80;;;3.40;;
9898;SDS011;4988;49.238;6.698;2023-05-17T14:35:09;9.03;;;3.67;;
9898;SDS011;4988;49.238;6.698;2023-05-17T14:37:35;7.80;;;3.30;;
9898;SDS011;4988;49.238;6.698;2023-05-17T14:40:00;10.63;;;4.27;;
9898;SDS011;4988;49.238;6.698;2023-05-17T14:42:26;14.07;;;4.03;;
9898;SDS011;4988;49.238;6.698;2023-05-17T14:44:52;7.67;;;3.57;;
9898;SDS011;4988;49.238;6.698;2023-05-17T14:47:17;8.97;;;3.80;;
9898;SDS011;4988;49.238;6.698;2023-05-17T14:49:45;9.87;;;3.37;;
9898;SDS011;4988;49.238;6.698;2023-05-17T14:52:10;9.00;;;3.10;;
9898;SDS011;4988;49.238;6.698;2023-05-17T14:54:37;8.57;;;3.40;;
9898;SDS011;4988;49.238;6.698;2023-05-17T14:57:03;8.87;;;3.10;;
9898;SDS011;4988;49.238;6.698;2023-05-17T14:59:29;4.47;;;2.90;;
9898;SDS011;4988;49.238;6.698;2023-05-17T15:01:55;9.97;;;3.30;;
9898;SDS011;4988;49.238;6.698;2023-05-17T15:04:20;8.53;;;3.47;;
9898;SDS011;4988;49.238;6.698;2023-05-17T15:06:46;7.93;;;3.20;;
9898;SDS011;4988;49.238;6.698;2023-05-17T15:09:11;5.87;;;3.23;;
9898;SDS011;4988;49.238;6.698;2023-05-17T15:11:38;11.77;;;3.47;;
9898;SDS011;4988;49.238;6.698;2023-05-17T15:14:03;10.90;;;3.57;;
9898;SDS011;4988;49.238;6.698;2023-05-17T15:16:30;9.13;;;3.40;;
9898;SDS011;4988;49.238;6.698;2023-05-17T15:18:55;8.10;;;3.37;;
9898;SDS011;4988;49.238;6.698;2023-05-17T15:21:21;9.43;;;3.83;;
9898;SDS011;4988;49.238;6.698;2023-05-17T15:23:46;10.00;;;3.57;;
9898;SDS011;4988;49.238;6.698;2023-05-17T15:26:12;6.73;;;3.13;;
9898;SDS011;4988;49.238;6.698;2023-05-17T15:28:37;7.03;;;3.33;;
9898;SDS011;4988;49.238;6.698;2023-05-17T15:31:03;9.83;;;3.90;;
9898;SDS011;4988;49.238;6.698;2023-05-17T15:33:30;9.67;;;4.30;;
9898;SDS011;4988;49.238;6.698;2023-05-17T15:35:56;8.13;;;4.40;;